Time;durP1;ratioP1;P1;durP2;ratioP2;P2;SDS_P1;SDS_P2;PMS_P1;PMS_P2;Temp;Humidity;BMP_temperature;BMP_pressure;BME280_temperature;BME280_humidity;BME280_pressure;Samples;Min_cycle;Max_cycle;Signal;HPM_P1;HPM_P2
2021/09/02 00:02:00;;;;;;;;;8.50;8.00;;;;;28.32;28.59;101000.75;144095;673;132012;-75
2021/09/02 00:04:34;;;;;;;;;9.25;9.25;;;;;27.82;29.52;101023.56;144080;585;132018;-75
2021/09/02 00:07:08;;;;;;;;;7.75;7.75;;;;;27.30;30.23;101026.69;144093;616;132010;-73
2021/09/02 00:09:52;;;;;;;;;6.50;6.25;;;;;27.84;29.40;101030.53;144096;578;132012;-74
2021/09/02 00:12:26;;;;;;;;;8.75;7.75;;;;;28.46;27.94;101021.84;144095;571;132010;-73
2021/09/02 00:15:00;;;;;;;;;7.75;7.75;;;;;28.31;27.83;101009.84;144082;609;132012;-74
2021/09/02 00:17:34;;;;;;;;;7.00;7.00;;;;;28.15;27.91;101024.84;144079;602;132010;-73
2021/09/02 00:20:09;;;;;;;;;9.00;7.25;;;;;28.37;28.14;101017.34;144085;584;132021;-74
2021/09/02 00:22:43;;;;;;;;;6.50;6.50;;;;;27.68;29.37;101030.28;144096;569;132010;-74
2021/09/02 00:25:17;;;;;;;;;8.00;8.00;;;;;28.09;28.28;101022.78;144088;585;132015;-73
2021/09/02 00:27:51;;;;;;;;;9.50;8.50;;;;;28.49;27.56;101021.53;144091;569;132010;-73
2021/09/02 00:30:25;;;;;;;;;7.50;7.00;;;;;27.73;28.13;101037.94;144081;655;132014;-75
2021/09/02 00:32:59;;;;;;;;;6.25;6.25;;;;;27.93;27.71;101033.34;144091;575;132013;-73
2021/09/02 00:35:33;;;;;;;;;6.75;6.75;;;;;27.87;26.95;101041.00;144099;700;132041;-75
2021/09/02 00:38:07;;;;;;;;;9.50;9.50;;;;;28.06;26.59;101033.84;144089;613;132010;-74
2021/09/02 00:40:41;;;;;;;;;10.50;10.50;;;;;28.14;26.10;101033.94;144073;564;132913;-72
2021/09/02 00:43:15;;;;;;;;;7.25;7.25;;;;;28.40;25.93;101018.88;144077;595;132012;-72
2021/09/02 00:45:49;;;;;;;;;7.50;7.50;;;;;28.51;25.81;101033.03;144082;624;132913;-72
2021/09/02 00:48:23;;;;;;;;;7.50;7.50;;;;;28.25;26.87;101029.34;144095;592;132012;-74
2021/09/02 00:50:57;;;;;;;;;9.75;9.75;;;;;28.53;26.51;101030.19;144078;636;132046;-72
2021/09/02 00:53:33;;;;;;;;;9.25;8.25;;;;;28.03;27.68;101031.44;144089;581;131040;-73
2021/09/02 00:56:08;;;;;;;;;6.75;6.75;;;;;28.33;26.94;101029.44;144085;649;131913;-71
2021/09/02 00:58:42;;;;;;;;;7.50;7.50;;;;;27.79;27.79;101037.34;144092;585;132010;-71
2021/09/02 01:01:21;;;;;;;;;8.00;8.00;;;;;28.17;27.39;101035.50;144093;582;131913;-72
2021/09/02 01:03:55;;;;;;;;;9.75;9.25;;;;;28.05;27.29;101053.75;144089;626;132012;-72
2021/09/02 01:06:29;;;;;;;;;5.25;5.25;;;;;28.25;27.22;101041.00;144081;609;132913;-71
2021/09/02 01:09:04;;;;;;;;;11.75;11.75;;;;;27.54;28.11;101037.00;144069;602;132012;-71
2021/09/02 01:11:37;;;;;;;;;6.00;6.00;;;;;27.84;27.44;101046.72;144080;695;132014;-73
2021/09/02 01:14:18;;;;;;;;;9.00;7.00;;;;;27.62;27.82;101036.28;144094;563;132010;-72
2021/09/02 01:16:59;;;;;;;;;7.25;7.25;;;;;28.05;27.44;101037.56;144083;602;132012;-74
2021/09/02 01:19:33;;;;;;;;;8.00;7.00;;;;;27.92;28.42;101050.50;144091;583;131044;-73
2021/09/02 01:22:08;;;;;;;;;9.00;9.00;;;;;27.62;28.37;101042.50;144082;591;132913;-72
2021/09/02 01:24:42;;;;;;;;;9.75;9.75;;;;;27.64;27.95;101040.53;144092;571;132010;-71
2021/09/02 01:27:16;;;;;;;;;8.00;8.00;;;;;27.82;27.44;101043.28;144094;585;132021;-71
2021/09/02 01:30:12;;;;;;;;;9.25;9.25;;;;;27.95;26.72;101040.25;144095;589;132012;-72
2021/09/02 01:32:48;;;;;;;;;6.50;6.50;;;;;28.17;26.59;101052.56;144080;623;132015;-72
2021/09/02 01:35:23;;;;;;;;;8.50;8.50;;;;;27.83;27.94;101055.78;144079;629;132010;-71
2021/09/02 01:38:04;;;;;;;;;6.00;6.00;;;;;27.47;28.20;101039.41;144087;564;131020;-71
2021/09/02 01:40:43;;;;;;;;;6.50;6.50;;;;;27.35;27.97;101032.47;144090;585;132012;-72
2021/09/02 01:43:20;;;;;;;;;4.75;4.75;;;;;27.28;28.95;101034.03;144082;604;132018;-73
2021/09/02 01:45:54;;;;;;;;;9.25;9.25;;;;;27.58;28.97;101046.50;144096;564;131020;-73
2021/09/02 01:48:27;;;;;;;;;11.00;10.25;;;;;27.22;30.85;101034.63;144080;595;132014;-72
2021/09/02 01:51:02;;;;;;;;;10.00;10.00;;;;;27.29;31.48;101060.00;144089;603;132020;-73
2021/09/02 01:53:35;;;;;;;;;10.00;10.00;;;;;27.29;31.24;101055.47;144082;651;132020;-71
2021/09/02 01:56:09;;;;;;;;;11.50;11.25;;;;;27.26;30.79;101055.75;144091;613;131021;-70
2021/09/02 01:58:43;;;;;;;;;13.75;11.00;;;;;27.28;30.52;101034.03;144073;616;132913;-70
2021/09/02 02:01:18;;;;;;;;;7.00;7.00;;;;;27.01;31.41;101038.31;144071;566;132012;-70
2021/09/02 02:03:52;;;;;;;;;9.25;9.25;;;;;27.68;29.41;101051.84;144075;573;132014;-70
2021/09/02 02:06:26;;;;;;;;;11.25;10.75;;;;;26.75;30.18;101028.12;144084;631;132012;-70
2021/09/02 02:09:00;;;;;;;;;7.00;7.00;;;;;26.92;30.24;101049.97;144079;636;132913;-71
2021/09/02 02:11:33;;;;;;;;;10.00;8.00;;;;;27.44;30.07;101038.88;144091;578;131020;-70
2021/09/02 02:14:07;;;;;;;;;10.75;10.75;;;;;27.11;31.43;101057.19;144083;593;131913;-72
2021/09/02 02:16:42;;;;;;;;;7.75;7.75;;;;;27.16;32.19;101053.06;144092;631;132012;-70
2021/09/02 02:19:15;;;;;;;;;14.25;13.25;;;;;26.96;33.02;101052.22;144083;564;132021;-71
2021/09/02 02:21:50;;;;;;;;;15.75;14.00;;;;;26.75;33.96;101033.53;144091;591;131020;-73
2021/09/02 02:24:24;;;;;;;;;13.00;13.00;;;;;26.66;33.68;101051.31;144077;662;132013;-71
2021/09/02 02:26:58;;;;;;;;;11.75;11.75;;;;;26.44;33.76;101062.34;144067;583;132012;-74
2021/09/02 02:29:32;;;;;;;;;12.00;10.50;;;;;26.99;33.22;101051.09;144071;569;132014;-70
2021/09/02 02:32:06;;;;;;;;;9.25;9.25;;;;;26.97;32.89;101053.06;144093;645;132013;-74
2021/09/02 02:34:40;;;;;;;;;11.75;10.75;;;;;26.78;33.46;101075.47;144072;613;132014;-71
2021/09/02 02:37:14;;;;;;;;;10.25;9.00;;;;;26.84;32.61;101070.34;144087;593;132012;-70
2021/09/02 02:39:48;;;;;;;;;11.25;10.25;;;;;26.17;33.55;101066.50;144077;564;132012;-73
2021/09/02 02:42:22;;;;;;;;;6.25;6.25;;;;;27.01;32.09;101070.66;144091;665;132012;-70
2021/09/02 02:44:56;;;;;;;;;10.75;10.75;;;;;26.25;33.52;101064.00;144094;580;131913;-73
2021/09/02 02:47:30;;;;;;;;;10.25;10.25;;;;;26.61;33.09;101053.56;144090;662;132012;-75
2021/09/02 02:50:04;;;;;;;;;10.25;10.25;;;;;26.13;33.63;101091.97;144070;633;132014;-71
2021/09/02 02:52:38;;;;;;;;;13.00;13.00;;;;;25.98;34.10;101078.00;144070;576;132010;-72
2021/09/02 02:55:13;;;;;;;;;13.00;13.00;;;;;25.73;34.89;101074.78;144077;608;132914;-78
2021/09/02 02:57:47;;;;;;;;;11.25;10.75;;;;;25.92;34.47;101073.19;144081;625;132012;-78
2021/09/02 03:00:21;;;;;;;;;14.50;13.50;;;;;25.85;34.71;101073.72;144076;584;132015;-77
2021/09/02 03:02:55;;;;;;;;;11.75;11.75;;;;;26.13;33.89;101063.22;144086;745;131045;-73
2021/09/02 03:05:29;;;;;;;;;9.00;9.00;;;;;26.46;32.92;101077.37;144080;594;132031;-74
2021/09/02 03:08:03;;;;;;;;;12.75;11.25;;;;;26.26;33.23;101054.94;144095;581;132018;-74
2021/09/02 03:10:37;;;;;;;;;12.00;11.00;;;;;26.56;32.78;101042.41;144087;626;132014;-71
2021/09/02 03:13:11;;;;;;;;;11.25;10.75;;;;;26.04;33.55;101080.22;144088;578;131020;-73
2021/09/02 03:15:45;;;;;;;;;14.00;13.00;;;;;25.76;33.92;101085.25;144079;607;132020;-75
2021/09/02 03:18:19;;;;;;;;;15.75;14.25;;;;;25.94;32.97;101065.81;144074;606;132012;-72
2021/09/02 03:20:54;;;;;;;;;14.75;14.75;;;;;26.62;31.42;101075.97;144078;571;132020;-72
2021/09/02 03:23:28;;;;;;;;;12.25;12.25;;;;;26.05;32.00;101065.75;144084;628;132011;-73
2021/09/02 03:26:02;;;;;;;;;11.75;11.75;;;;;25.68;32.57;101066.25;144074;569;132020;-74
2021/09/02 03:28:36;;;;;;;;;12.25;11.00;;;;;26.14;32.07;101074.88;144089;609;131020;-76
2021/09/02 03:31:09;;;;;;;;;11.50;11.00;;;;;26.62;31.13;101075.97;144079;605;132013;-75
2021/09/02 03:33:43;;;;;;;;;9.75;9.00;;;;;26.20;31.52;101076.16;144095;563;131031;-70
2021/09/02 03:36:17;;;;;;;;;9.75;9.75;;;;;26.13;30.57;101067.78;144088;584;132014;-70
2021/09/02 03:38:51;;;;;;;;;12.50;10.75;;;;;25.80;30.98;101078.63;144083;570;131021;-72
2021/09/02 03:41:25;;;;;;;;;11.25;10.00;;;;;25.75;30.95;101082.72;144082;583;132012;-71
2021/09/02 03:43:59;;;;;;;;;12.00;12.00;;;;;25.65;31.38;101093.41;144073;629;131023;-71
2021/09/02 03:46:33;;;;;;;;;11.50;11.50;;;;;25.36;31.87;101088.69;144071;640;132013;-69
2021/09/02 03:49:08;;;;;;;;;13.75;13.75;;;;;25.56;31.84;101088.81;144087;588;131020;-69
2021/09/02 03:51:41;;;;;;;;;12.75;11.75;;;;;25.66;31.32;101092.44;144076;600;132913;-72
2021/09/02 03:54:15;;;;;;;;;12.00;12.00;;;;;25.65;31.02;101104.16;144082;591;132013;-70
2021/09/02 03:56:49;;;;;;;;;10.00;10.00;;;;;25.89;31.16;101111.97;144082;569;131913;-70
2021/09/02 03:59:23;;;;;;;;;11.75;11.75;;;;;25.94;31.19;101103.47;144080;579;132013;-70
2021/09/02 04:01:57;;;;;;;;;11.00;10.75;;;;;26.23;31.59;101108.16;144092;572;132914;-71
2021/09/02 04:04:31;;;;;;;;;14.00;12.25;;;;;25.99;31.55;101095.88;144081;636;132012;-71
2021/09/02 04:07:05;;;;;;;;;13.00;13.00;;;;;26.59;30.64;101113.97;144079;597;132015;-71
2021/09/02 04:09:39;;;;;;;;;10.75;10.75;;;;;26.14;30.88;101118.75;144076;590;132010;-71
2021/09/02 04:12:13;;;;;;;;;13.75;12.00;;;;;26.75;30.12;101124.22;144082;592;132913;-69
2021/09/02 04:14:47;;;;;;;;;13.25;13.25;;;;;26.07;31.44;101125.66;144083;649;132011;-71
2021/09/02 04:17:21;;;;;;;;;12.00;12.00;;;;;26.42;30.98;101123.53;144076;715;132019;-72
2021/09/02 04:19:55;;;;;;;;;12.75;12.75;;;;;26.61;30.75;101115.50;144092;607;131020;-72
2021/09/02 04:22:29;;;;;;;;;14.50;14.50;;;;;26.80;30.46;101130.88;144075;583;132020;-72
2021/09/02 04:25:03;;;;;;;;;14.00;12.25;;;;;26.81;30.49;101139.84;144085;606;132010;-71
2021/09/02 04:27:37;;;;;;;;;9.75;9.75;;;;;27.02;30.40;101132.50;144081;670;132014;-72
2021/09/02 04:30:13;;;;;;;;;11.25;10.25;;;;;27.39;29.36;101138.19;144085;617;132012;-71
2021/09/02 04:32:47;;;;;;;;;12.50;12.50;;;;;26.80;29.52;101138.97;144076;678;132021;-71
2021/09/02 04:35:21;;;;;;;;;15.25;13.75;;;;;27.58;28.38;101143.56;144070;618;131036;-70
2021/09/02 04:37:55;;;;;;;;;19.75;18.25;;;;;27.75;28.37;101150.09;144076;577;132020;-70
2021/09/02 04:40:29;;;;;;;;;12.50;11.75;;;;;28.34;27.73;101156.19;144085;569;132010;-71
2021/09/02 04:43:03;;;;;;;;;12.00;12.00;;;;;28.23;28.65;101159.06;144074;645;132020;-70
2021/09/02 04:45:37;;;;;;;;;14.00;14.00;;;;;28.14;28.59;101159.94;144082;615;132013;-70
2021/09/02 04:48:21;;;;;;;;;13.25;13.25;;;;;28.21;28.67;101158.34;144078;757;132012;-70
2021/09/02 04:50:55;;;;;;;;;12.75;12.25;;;;;28.52;28.23;101161.63;144091;569;131020;-70
2021/09/02 04:53:29;;;;;;;;;12.50;12.50;;;;;29.13;27.52;101153.91;144084;620;132012;-72
2021/09/02 04:56:03;;;;;;;;;15.25;12.50;;;;;29.15;27.37;101151.87;144088;607;131020;-70
2021/09/02 04:58:37;;;;;;;;;16.25;12.75;;;;;28.20;28.16;101152.13;144076;566;132913;-71
2021/09/02 05:01:11;;;;;;;;;12.25;12.25;;;;;27.44;29.39;101161.03;144071;577;131021;-70
2021/09/02 05:03:45;;;;;;;;;17.50;14.50;;;;;27.96;28.91;101149.88;144077;649;132014;-70
2021/09/02 05:06:19;;;;;;;;;13.00;12.75;;;;;29.09;27.46;101152.50;144087;674;131021;-70
2021/09/02 05:08:53;;;;;;;;;12.00;12.00;;;;;29.32;27.01;101165.59;144071;574;132019;-70
2021/09/02 05:11:27;;;;;;;;;12.00;12.00;;;;;29.57;26.95;101165.78;144087;616;132009;-70
2021/09/02 05:14:01;;;;;;;;;13.75;13.50;;;;;29.71;26.36;101159.81;144072;590;132016;-70
2021/09/02 05:16:35;;;;;;;;;13.50;13.50;;;;;29.28;26.38;101173.19;144089;617;131033;-71
2021/09/02 05:19:09;;;;;;;;;13.50;13.50;;;;;28.83;26.98;101182.97;144094;622;132913;-70
2021/09/02 05:21:43;;;;;;;;;10.75;10.75;;;;;29.36;26.29;101181.34;144087;649;132018;-69
2021/09/02 05:24:17;;;;;;;;;11.50;11.50;;;;;29.85;25.77;101171.97;144081;609;132012;-69
2021/09/02 05:26:51;;;;;;;;;15.25;14.75;;;;;29.95;25.67;101175.44;144070;595;132012;-71
2021/09/02 05:29:25;;;;;;;;;13.25;13.25;;;;;30.08;25.69;101177.69;144075;598;132014;-71
2021/09/02 05:31:59;;;;;;;;;12.75;12.00;;;;;30.19;26.18;101177.41;144085;569;132012;-69
2021/09/02 05:34:33;;;;;;;;;11.00;11.00;;;;;30.26;26.13;101184.91;144080;628;131913;-70
2021/09/02 05:37:07;;;;;;;;;11.50;11.00;;;;;30.28;26.08;101191.00;144093;642;132012;-69
2021/09/02 05:39:41;;;;;;;;;13.25;13.25;;;;;30.29;26.02;101190.00;144079;605;132913;-68
2021/09/02 05:42:15;;;;;;;;;14.50;14.50;;;;;30.00;25.91;101175.78;144084;586;132012;-68
2021/09/02 05:44:49;;;;;;;;;16.00;14.00;;;;;30.21;25.55;101196.22;144081;629;132014;-73
2021/09/02 05:47:23;;;;;;;;;12.75;12.75;;;;;30.10;26.42;101194.62;144089;595;132012;-73
2021/09/02 05:49:57;;;;;;;;;15.75;15.25;;;;;30.19;26.53;101200.94;144078;605;132020;-74
2021/09/02 05:52:31;;;;;;;;;9.75;9.75;;;;;30.34;26.12;101193.06;144074;579;132020;-73
2021/09/02 05:55:05;;;;;;;;;12.25;12.25;;;;;29.18;27.31;101208.38;144074;711;132913;-73
2021/09/02 05:57:39;;;;;;;;;13.00;13.00;;;;;29.87;26.97;101211.38;144088;580;132010;-73
2021/09/02 06:00:15;;;;;;;;;12.00;11.75;;;;;30.11;26.06;101200.91;144075;648;132913;-73
2021/09/02 06:02:49;;;;;;;;;12.50;12.50;;;;;30.32;25.79;101212.19;144087;606;132010;-73
2021/09/02 06:05:23;;;;;;;;;14.75;14.25;;;;;30.44;26.10;101210.09;144077;614;132913;-77
2021/09/02 06:07:57;;;;;;;;;14.75;13.25;;;;;30.59;25.59;101212.19;144093;697;131023;-80
2021/09/02 06:10:34;;;;;;;;;10.00;10.00;;;;;30.70;25.51;101209.16;144089;591;132012;-73
2021/09/02 06:13:09;;;;;;;;;16.25;15.25;;;;;30.74;25.74;101215.97;144092;592;131022;-71
2021/09/02 06:15:43;;;;;;;;;12.75;12.75;;;;;30.97;25.41;101215.38;144073;636;132914;-74
2021/09/02 06:18:17;;;;;;;;;13.75;13.75;;;;;30.36;26.70;101221.69;144073;592;132010;-70
2021/09/02 06:20:51;;;;;;;;;14.75;13.25;;;;;30.57;26.06;101222.34;144073;611;132015;-76
2021/09/02 06:23:25;;;;;;;;;13.25;13.25;;;;;30.76;25.83;101222.09;144088;595;132010;-72
2021/09/02 06:26:00;;;;;;;;;11.25;11.25;;;;;30.81;26.22;101221.56;144081;628;132020;-69
2021/09/02 06:28:33;;;;;;;;;12.50;12.50;;;;;31.10;25.93;101214.91;144089;571;131021;-72
2021/09/02 06:31:07;;;;;;;;;13.00;13.00;;;;;30.73;25.79;101230.53;144077;668;132021;-74
2021/09/02 06:33:41;;;;;;;;;13.25;13.25;;;;;31.13;25.49;101225.44;144085;720;132012;-74
2021/09/02 06:36:18;;;;;;;;;10.75;10.75;;;;;30.92;26.27;101228.56;144092;607;132012;-73
2021/09/02 06:38:52;;;;;;;;;11.50;11.25;;;;;30.60;24.85;101224.72;144089;626;132010;-70
2021/09/02 06:41:26;;;;;;;;;12.00;12.00;;;;;30.26;25.84;101228.22;144078;569;132012;-73
2021/09/02 06:44:03;;;;;;;;;11.50;11.50;;;;;30.15;26.61;101226.63;144075;571;131027;-73
2021/09/02 06:46:36;;;;;;;;;13.25;13.25;;;;;30.63;26.24;101221.69;144081;691;132010;-73
2021/09/02 06:49:11;;;;;;;;;15.25;13.00;;;;;30.77;25.62;101223.78;144091;594;132012;-72
2021/09/02 06:51:44;;;;;;;;;14.25;14.25;;;;;29.79;26.46;101235.66;144073;633;132013;-73
2021/09/02 06:54:18;;;;;;;;;10.00;10.00;;;;;29.73;26.67;101228.19;144087;612;132010;-72
2021/09/02 06:56:52;;;;;;;;;12.25;12.25;;;;;30.16;26.21;101234.59;144078;696;132922;-73
2021/09/02 06:59:26;;;;;;;;;12.25;11.75;;;;;30.60;26.15;101230.13;144090;571;132010;-72
2021/09/02 07:02:00;;;;;;;;;10.75;9.75;;;;;31.31;25.09;101236.16;144092;570;132012;-72
2021/09/02 07:04:34;;;;;;;;;13.25;12.75;;;;;31.56;24.44;101232.47;144091;629;132010;-73
2021/09/02 07:07:08;;;;;;;;;11.00;11.00;;;;;31.34;24.21;101235.81;144071;592;132913;-72
2021/09/02 07:09:42;;;;;;;;;11.75;10.50;;;;;31.92;23.99;101239.44;144072;614;131020;-72
2021/09/02 07:12:16;;;;;;;;;12.25;12.25;;;;;32.53;23.31;101245.31;144078;610;132035;-72
2021/09/02 07:14:50;;;;;;;;;11.75;11.75;;;;;32.52;22.52;101250.87;144088;564;132010;-73
2021/09/02 07:17:24;;;;;;;;;10.00;10.00;;;;;33.27;21.67;101241.41;144075;637;132014;-72
2021/09/02 07:19:59;;;;;;;;;12.75;12.75;;;;;33.82;20.16;101238.62;144089;635;131050;-72
2021/09/02 07:22:33;;;;;;;;;13.50;11.25;;;;;33.83;19.36;101238.47;144078;592;132013;-72
2021/09/02 07:25:08;;;;;;;;;11.00;11.00;;;;;33.55;20.25;101240.87;144089;600;132010;-72
2021/09/02 07:27:42;;;;;;;;;10.50;10.50;;;;;33.99;20.26;101245.62;144089;601;132913;-72
2021/09/02 07:30:17;;;;;;;;;11.50;11.25;;;;;33.75;20.87;101238.50;144092;637;132011;-72
2021/09/02 07:32:50;;;;;;;;;11.00;9.75;;;;;34.01;20.37;101240.84;144074;577;132913;-72
2021/09/02 07:35:25;;;;;;;;;11.00;10.75;;;;;33.89;21.12;101256.78;144074;583;132012;-73
2021/09/02 07:37:59;;;;;;;;;11.50;11.50;;;;;34.24;20.56;101231.75;144079;712;131913;-72
2021/09/02 07:40:33;;;;;;;;;12.50;12.50;;;;;34.64;20.45;101248.72;144087;600;132012;-74
2021/09/02 07:43:07;;;;;;;;;12.50;12.50;;;;;34.55;20.65;101247.94;144075;563;132014;-73
2021/09/02 07:45:41;;;;;;;;;11.00;11.00;;;;;34.51;21.04;101243.06;144082;592;132012;-73
2021/09/02 07:48:15;;;;;;;;;13.25;13.25;;;;;34.71;20.88;101246.06;144074;611;132914;-73
2021/09/02 07:50:49;;;;;;;;;11.50;11.50;;;;;34.15;21.71;101250.06;144082;585;132010;-74
2021/09/02 07:53:23;;;;;;;;;12.00;12.00;;;;;34.50;20.96;101247.69;144089;592;132014;-74
2021/09/02 07:55:58;;;;;;;;;10.75;10.75;;;;;34.58;21.05;101255.78;144081;569;132026;-73
2021/09/02 07:58:31;;;;;;;;;10.00;10.00;;;;;34.89;20.57;101251.16;144078;587;131913;-73
2021/09/02 08:01:13;;;;;;;;;10.25;10.25;;;;;34.89;20.45;101249.25;144078;565;132031;-74
2021/09/02 08:03:47;;;;;;;;;12.25;10.75;;;;;34.87;20.66;101254.06;144081;604;131913;-73
2021/09/02 08:06:21;;;;;;;;;14.00;13.00;;;;;35.02;20.53;101255.91;144084;572;132010;-73
2021/09/02 08:08:55;;;;;;;;;10.25;10.25;;;;;34.78;20.83;101259.78;144079;584;132021;-73
2021/09/02 08:11:29;;;;;;;;;9.25;9.25;;;;;34.78;20.83;101259.78;144085;598;132012;-74
2021/09/02 08:14:03;;;;;;;;;9.50;9.50;;;;;34.89;20.65;101256.59;144079;572;132018;-73
2021/09/02 08:16:40;;;;;;;;;13.25;13.25;;;;;34.92;20.64;101254.31;144088;569;131021;-73
2021/09/02 08:19:14;;;;;;;;;12.00;12.00;;;;;34.88;20.74;101254.91;144090;711;131913;-73
2021/09/02 08:21:47;;;;;;;;;10.00;8.75;;;;;34.85;20.77;101258.03;144094;634;131021;-73
2021/09/02 08:24:21;;;;;;;;;11.25;11.25;;;;;34.57;21.14;101247.75;144081;569;132019;-73
2021/09/02 08:26:56;;;;;;;;;13.25;13.25;;;;;34.75;20.97;101241.94;144071;565;131020;-73
2021/09/02 08:29:29;;;;;;;;;11.00;11.00;;;;;34.82;20.79;101256.53;144077;580;132015;-74
2021/09/02 08:32:03;;;;;;;;;12.50;11.50;;;;;34.52;21.12;101256.50;144084;588;132012;-73
2021/09/02 08:34:37;;;;;;;;;12.75;12.00;;;;;34.86;20.68;101257.81;144078;566;131913;-73
2021/09/02 08:37:11;;;;;;;;;13.25;11.75;;;;;35.08;20.63;101253.25;144084;569;132012;-73
2021/09/02 08:39:45;;;;;;;;;11.50;9.25;;;;;35.35;20.14;101250.00;144085;571;132014;-74
2021/09/02 08:42:20;;;;;;;;;11.75;11.75;;;;;35.09;20.41;101245.94;144090;584;132010;-73
2021/09/02 08:44:57;;;;;;;;;11.00;11.00;;;;;35.23;20.43;101247.75;144087;570;132013;-74
2021/09/02 08:47:32;;;;;;;;;11.25;11.25;;;;;35.32;20.40;101239.47;144086;566;132008;-73
2021/09/02 08:50:07;;;;;;;;;10.00;10.00;;;;;35.48;19.88;101252.88;144077;605;132014;-74
2021/09/02 08:52:41;;;;;;;;;15.50;15.50;;;;;35.59;19.84;101244.16;144070;628;132011;-74
2021/09/02 08:55:15;;;;;;;;;13.75;12.50;;;;;35.79;19.63;101239.91;144072;596;132006;-73
2021/09/02 08:57:54;;;;;;;;;10.00;10.00;;;;;35.82;19.79;101239.53;144087;649;132010;-73
2021/09/02 09:00:29;;;;;;;;;13.50;12.75;;;;;35.55;19.71;101231.94;144078;598;132913;-73
2021/09/02 09:03:09;;;;;;;;;11.25;11.25;;;;;35.78;19.63;101233.59;144087;680;132012;-74
2021/09/02 09:05:42;;;;;;;;;9.50;9.25;;;;;36.00;19.15;101220.78;144075;600;131913;-74
2021/09/02 09:08:16;;;;;;;;;10.50;10.50;;;;;36.13;18.74;101216.44;144091;590;131021;-74
2021/09/02 09:10:52;;;;;;;;;13.50;13.50;;;;;36.17;18.91;101226.78;144089;563;132018;-74
2021/09/02 09:13:34;;;;;;;;;11.00;10.00;;;;;35.92;19.28;101215.47;144090;576;132013;-73
2021/09/02 09:16:08;;;;;;;;;13.25;12.25;;;;;35.97;19.24;101212.97;144077;625;132014;-74
2021/09/02 09:18:49;;;;;;;;;10.00;10.00;;;;;35.95;19.11;101222.41;144068;622;132010;-73
2021/09/02 09:21:24;;;;;;;;;10.50;10.50;;;;;35.85;19.21;101209.94;144083;690;132913;-73
2021/09/02 09:24:04;;;;;;;;;12.25;11.75;;;;;35.70;18.98;101220.09;144085;574;132012;-73
2021/09/02 09:26:40;;;;;;;;;11.75;10.75;;;;;36.04;18.91;101227.53;144082;623;132020;-74
2021/09/02 09:29:23;;;;;;;;;12.75;12.75;;;;;35.66;18.96;101216.06;144087;595;132012;-74
2021/09/02 09:31:57;;;;;;;;;10.50;10.50;;;;;35.96;18.45;101216.75;144076;564;132014;-74
2021/09/02 09:34:32;;;;;;;;;14.50;12.25;;;;;36.07;18.36;101212.63;144090;571;131020;-74
2021/09/02 09:37:12;;;;;;;;;7.75;7.75;;;;;36.15;18.44;101203.44;144092;564;132013;-73
2021/09/02 09:39:48;;;;;;;;;10.75;10.75;;;;;36.13;18.51;101200.91;144076;572;132046;-73
2021/09/02 09:42:22;;;;;;;;;10.25;10.25;;;;;36.43;17.73;101211.62;144077;589;132913;-73
2021/09/02 09:44:56;;;;;;;;;11.25;11.25;;;;;35.85;18.29;101206.37;144068;621;132012;-74
2021/09/02 09:47:30;;;;;;;;;12.50;12.50;;;;;35.13;18.87;101202.72;144077;603;132020;-74
2021/09/02 09:50:09;;;;;;;;;11.50;11.50;;;;;36.23;18.04;101206.84;144094;708;131020;-73
2021/09/02 09:52:43;;;;;;;;;11.50;11.50;;;;;35.98;18.41;101197.41;144079;572;132914;-74
2021/09/02 09:55:20;;;;;;;;;9.75;8.75;;;;;35.87;18.47;101194.22;144094;576;132012;-74
2021/09/02 09:57:54;;;;;;;;;9.75;9.75;;;;;36.20;18.02;101198.22;144075;583;132013;-73
2021/09/02 10:00:28;;;;;;;;;12.00;12.00;;;;;36.23;17.86;101195.91;144088;594;132012;-74
2021/09/02 10:03:03;;;;;;;;;10.50;9.50;;;;;35.81;18.65;101194.97;144091;579;131913;-73
2021/09/02 10:05:39;;;;;;;;;9.50;9.50;;;;;35.58;18.49;101187.88;144089;570;132012;-73
2021/09/02 10:08:13;;;;;;;;;12.25;11.75;;;;;36.24;17.87;101188.56;144073;622;131914;-74
2021/09/02 10:10:50;;;;;;;;;8.00;8.00;;;;;36.43;17.84;101189.75;144078;612;132012;-74
2021/09/02 10:13:25;;;;;;;;;10.00;9.00;;;;;35.93;18.30;101187.09;144080;646;133018;-74
2021/09/02 10:15:59;;;;;;;;;11.00;11.00;;;;;36.21;18.30;101187.09;144088;570;132010;-73
2021/09/02 10:18:35;;;;;;;;;8.75;8.75;;;;;36.64;17.77;101179.75;144079;627;132913;-74
2021/09/02 10:21:11;;;;;;;;;10.75;10.75;;;;;36.67;17.82;101173.84;144092;590;132010;-73
2021/09/02 10:23:45;;;;;;;;;10.00;10.00;;;;;36.96;17.80;101174.59;144079;570;132012;-73
2021/09/02 10:26:38;;;;;;;;;11.00;11.00;;;;;37.16;17.84;101169.16;144092;564;132010;-74
2021/09/02 10:29:40;;;;;;;;;12.50;10.75;;;;;36.99;17.65;101174.16;144091;577;132914;-74
2021/09/02 10:32:48;;;;;;;;;9.50;9.50;;;;;37.56;16.97;101161.81;144095;570;132010;-74
2021/09/02 10:35:42;;;;;;;;;9.25;9.25;;;;;37.47;17.07;101151.28;144085;570;132013;-74
2021/09/02 10:38:16;;;;;;;;;14.50;12.50;;;;;37.42;17.55;101168.38;144070;574;132012;-73
2021/09/02 10:40:52;;;;;;;;;9.50;9.50;;;;;37.71;16.39;101158.03;144089;602;132913;-73
2021/09/02 10:44:01;;;;;;;;;11.00;9.00;;;;;37.37;16.85;101165.41;144088;570;131021;-74
2021/09/02 10:46:44;;;;;;;;;13.25;11.00;;;;;37.67;16.89;101160.34;144081;569;132012;-74
2021/09/02 10:49:35;;;;;;;;;12.75;11.25;;;;;37.31;16.82;101152.56;144093;605;132013;-74
2021/09/02 10:52:29;;;;;;;;;9.75;9.75;;;;;38.04;16.54;101154.41;144084;578;132914;-75
2021/09/02 10:55:33;;;;;;;;;11.50;11.50;;;;;38.00;16.54;101155.87;144084;601;132010;-74
2021/09/02 10:58:09;;;;;;;;;11.50;11.50;;;;;37.94;16.33;101154.84;144087;626;132012;-74
2021/09/02 11:00:45;;;;;;;;;11.00;11.00;;;;;38.04;16.39;101154.41;144083;579;132012;-76
2021/09/02 11:03:25;;;;;;;;;11.00;11.00;;;;;37.81;16.25;101163.09;144080;593;132012;-73
2021/09/02 11:06:00;;;;;;;;;8.00;8.00;;;;;37.71;16.41;101155.28;144077;588;132010;-74
2021/09/02 11:08:39;;;;;;;;;10.25;10.25;;;;;37.68;16.31;101161.19;144079;565;132913;-73
2021/09/02 11:11:24;;;;;;;;;10.75;10.75;;;;;37.19;16.65;101166.84;144091;626;132010;-73
2021/09/02 11:13:58;;;;;;;;;14.50;13.75;;;;;37.68;16.56;101159.28;144076;635;132014;-73
2021/09/02 11:16:41;;;;;;;;;13.25;13.00;;;;;37.75;16.38;101162.84;144080;630;132012;-74
2021/09/02 11:19:15;;;;;;;;;13.50;12.00;;;;;36.98;16.92;101154.19;144080;598;132012;-73
2021/09/02 11:21:51;;;;;;;;;10.50;10.50;;;;;37.50;16.12;101159.94;144090;586;131020;-73
2021/09/02 11:24:25;;;;;;;;;9.00;9.00;;;;;37.43;16.66;101153.62;144095;581;132913;-74
2021/09/02 11:26:59;;;;;;;;;13.25;12.50;;;;;35.82;17.91;101153.00;144084;642;132012;-74
2021/09/02 11:29:36;;;;;;;;;12.00;12.00;;;;;36.30;17.42;101154.12;144077;585;132014;-74
2021/09/02 11:32:15;;;;;;;;;13.00;11.25;;;;;36.86;17.04;101155.84;144068;634;132012;-75
2021/09/02 11:34:49;;;;;;;;;9.50;9.50;;;;;37.77;15.90;101154.47;144084;623;132013;-74
2021/09/02 11:37:23;;;;;;;;;9.25;9.25;;;;;37.77;15.60;101154.47;144091;606;132010;-74
2021/09/02 11:39:57;;;;;;;;;12.00;11.00;;;;;37.93;15.98;101151.28;144073;631;132014;-74
2021/09/02 11:42:31;;;;;;;;;10.50;10.50;;;;;38.05;15.31;101142.37;144088;609;132010;-74